createdAt,value
2023-03-21T00:00:32.687Z,12.56
2023-03-21T00:03:18.882Z,12.56
2023-03-21T00:05:49.970Z,12.53
2023-03-21T00:08:18.120Z,12.49
2023-03-21T00:10:45.185Z,12.47
2023-03-21T00:13:13.571Z,12.42
2023-03-21T00:16:05.131Z,12.39
2023-03-21T00:18:42.212Z,12.33
2023-03-21T00:21:39.600Z,12.35
2023-03-21T00:24:02.816Z,12.30
2023-03-21T00:26:29.771Z,12.25
2023-03-21T00:28:57.221Z,12.23
2023-03-21T00:31:24.170Z,12.24
2023-03-21T00:33:51.574Z,12.22
2023-03-21T00:36:19.005Z,12.22
2023-03-21T00:38:46.265Z,12.20
2023-03-21T00:41:26.366Z,12.15
2023-03-21T00:44:04.232Z,12.08
2023-03-21T00:46:43.717Z,12.02
2023-03-21T00:49:13.022Z,12.01
2023-03-21T00:51:40.094Z,11.95
2023-03-21T00:54:07.894Z,11.85
2023-03-21T00:56:34.919Z,11.80
2023-03-21T00:59:02.180Z,11.80
2023-03-21T01:01:32.116Z,11.78
2023-03-21T01:04:05.653Z,11.69
2023-03-21T01:06:40.744Z,11.67
2023-03-21T01:09:20.802Z,11.63
2023-03-21T01:11:49.416Z,11.56
2023-03-21T01:14:22.833Z,11.50
2023-03-21T01:16:54.177Z,11.35
2023-03-21T01:19:44.245Z,11.29
2023-03-21T01:22:15.709Z,11.29
2023-03-21T01:24:52.408Z,11.29
2023-03-21T01:27:21.017Z,11.23
2023-03-21T01:29:48.199Z,11.25
2023-03-21T01:32:15.190Z,11.24
2023-03-21T01:34:42.484Z,11.26
2023-03-21T01:37:09.392Z,11.29
2023-03-21T01:39:36.761Z,11.31
2023-03-21T01:42:03.923Z,11.30
2023-03-21T01:44:31.740Z,11.28
2023-03-21T01:47:10.367Z,11.23
2023-03-21T01:49:46.374Z,11.23
2023-03-21T01:52:33.392Z,11.24
2023-03-21T01:55:07.160Z,11.23
2023-03-21T01:58:02.056Z,11.22
2023-03-21T02:00:33.511Z,11.22
2023-03-21T02:03:12.781Z,11.22
2023-03-21T02:06:03.598Z,11.16
2023-03-21T02:08:39.716Z,11.14
2023-03-21T02:11:10.180Z,11.14
2023-03-21T02:13:38.205Z,11.16
2023-03-21T02:16:15.617Z,11.14
2023-03-21T02:19:04.314Z,11.07
2023-03-21T02:21:46.588Z,11.04
2023-03-21T02:24:59.565Z,11.04
2023-03-21T02:27:41.024Z,11.07
2023-03-21T02:31:08.940Z,11.04
2023-03-21T02:34:13.918Z,11.04
2023-03-21T02:37:01.274Z,10.99
2023-03-21T02:39:55.044Z,10.88
2023-03-21T02:43:01.049Z,10.85
2023-03-21T02:45:50.820Z,10.88
2023-03-21T02:48:44.747Z,10.91
2023-03-21T02:51:24.224Z,10.84
2023-03-21T02:54:24.954Z,10.79
2023-03-21T02:56:53.224Z,10.85
2023-03-21T02:59:23.821Z,10.87
2023-03-21T03:01:52.931Z,10.85
2023-03-21T03:04:28.538Z,10.88
2023-03-21T03:06:58.716Z,10.85
2023-03-21T03:09:48.126Z,10.86
2023-03-21T03:12:39.798Z,10.84
2023-03-21T03:15:22.154Z,10.81
2023-03-21T03:18:34.804Z,10.82
2023-03-21T03:21:32.738Z,10.80
2023-03-21T03:24:03.682Z,10.80
2023-03-21T03:26:41.269Z,10.83
2023-03-21T03:29:14.954Z,10.83
2023-03-21T03:31:54.732Z,10.84
2023-03-21T03:34:29.612Z,10.80
2023-03-21T03:37:04.571Z,10.75
2023-03-21T03:39:46.269Z,10.73
2023-03-21T03:42:28.541Z,10.76
2023-03-21T03:44:57.613Z,10.78
2023-03-21T03:47:58.070Z,10.79
2023-03-21T03:50:36.406Z,10.81
2023-03-21T03:53:37.059Z,10.78
2023-03-21T03:56:08.301Z,10.75
2023-03-21T03:58:45.193Z,10.71
2023-03-21T04:01:14.132Z,10.74
2023-03-21T04:03:52.984Z,10.74
2023-03-21T04:06:29.061Z,10.68
2023-03-21T04:08:57.226Z,10.66
2023-03-21T04:11:24.640Z,10.64
2023-03-21T04:13:52.082Z,10.62
2023-03-21T04:16:19.416Z,10.62
2023-03-21T04:18:47.784Z,10.59
2023-03-21T04:21:15.597Z,10.58
2023-03-21T04:23:42.531Z,10.57
2023-03-21T04:26:11.140Z,10.53
2023-03-21T04:28:39.807Z,10.55
2023-03-21T04:31:22.719Z,10.57
2023-03-21T04:33:52.326Z,10.61
2023-03-21T04:36:26.475Z,10.60
2023-03-21T04:38:54.329Z,10.54
2023-03-21T04:41:21.565Z,10.49
2023-03-21T04:43:48.534Z,10.38
2023-03-21T04:46:15.846Z,10.32
2023-03-21T04:48:42.756Z,10.21
2023-03-21T04:51:10.055Z,10.19
2023-03-21T04:53:38.536Z,10.10
2023-03-21T04:56:07.152Z,10.08
2023-03-21T04:58:34.406Z,10.10
2023-03-21T05:01:06.005Z,10.11
2023-03-21T05:03:34.605Z,10.15
2023-03-21T05:06:01.822Z,10.15
2023-03-21T05:08:29.214Z,10.20
2023-03-21T05:10:56.480Z,10.20
2023-03-21T05:13:23.658Z,10.22
2023-03-21T05:15:50.860Z,10.20
2023-03-21T05:18:24.860Z,10.20
2023-03-21T05:20:57.381Z,10.18
2023-03-21T05:23:24.916Z,10.18
2023-03-21T05:25:52.111Z,10.13
2023-03-21T05:28:21.592Z,10.10
2023-03-21T05:30:48.961Z,10.13
2023-03-21T05:33:15.883Z,10.12
2023-03-21T05:35:43.772Z,10.08
2023-03-21T05:38:10.690Z,10.05
2023-03-21T05:40:37.996Z,10.05
2023-03-21T05:43:05.064Z,10.09
2023-03-21T05:45:32.348Z,10.08
2023-03-21T05:47:59.337Z,10.09
2023-03-21T05:50:26.614Z,9.99
2023-03-21T05:52:53.685Z,10.05
2023-03-21T05:55:21.148Z,10.08
2023-03-21T05:57:48.407Z,10.14
2023-03-21T06:00:16.621Z,10.19
2023-03-21T06:02:44.803Z,10.21
2023-03-21T06:05:12.223Z,10.24
2023-03-21T06:07:39.986Z,10.29
2023-03-21T06:10:07.836Z,10.33
2023-03-21T06:12:34.820Z,10.35
2023-03-21T06:15:02.475Z,10.37
2023-03-21T06:17:29.536Z,10.43
2023-03-21T06:19:57.411Z,10.49
2023-03-21T06:22:24.377Z,10.55
2023-03-21T06:24:51.549Z,10.60
2023-03-21T06:27:18.854Z,10.68
2023-03-21T06:29:46.404Z,10.73
2023-03-21T06:32:13.821Z,10.78
2023-03-21T06:34:41.091Z,10.83
2023-03-21T06:37:08.172Z,10.86
2023-03-21T06:39:36.323Z,10.85
2023-03-21T06:42:03.536Z,10.95
2023-03-21T06:44:31.066Z,11.03
2023-03-21T06:46:58.025Z,11.12
2023-03-21T06:49:26.067Z,11.21
2023-03-21T06:51:53.508Z,11.26
2023-03-21T06:54:21.152Z,11.32
2023-03-21T06:56:48.190Z,11.37
2023-03-21T06:59:15.938Z,11.41
2023-03-21T07:01:43.972Z,11.47
2023-03-21T07:04:11.336Z,11.54
2023-03-21T07:06:38.424Z,11.54
2023-03-21T07:09:06.923Z,11.61
2023-03-21T07:11:35.926Z,11.67
2023-03-21T07:14:04.089Z,11.69
2023-03-21T07:16:31.195Z,11.73
2023-03-21T07:18:58.478Z,11.75
2023-03-21T07:21:25.542Z,11.76
2023-03-21T07:23:52.798Z,11.81
2023-03-21T07:26:19.800Z,11.83
2023-03-21T07:28:47.023Z,11.87
2023-03-21T07:31:17.349Z,11.92
2023-03-21T07:33:44.576Z,11.97
2023-03-21T07:36:16.309Z,11.99
2023-03-21T07:38:46.013Z,12.07
2023-03-21T07:43:46.496Z,12.24
2023-03-21T07:46:13.610Z,12.29
2023-03-21T07:48:41.093Z,12.31
2023-03-21T07:51:08.243Z,12.33
2023-03-21T07:53:35.747Z,12.41
2023-03-21T07:56:02.734Z,12.44
2023-03-21T07:58:30.040Z,12.51
2023-03-21T08:00:58.811Z,12.49
2023-03-21T08:03:29.957Z,12.59
2023-03-21T08:06:03.377Z,12.68
2023-03-21T08:08:30.964Z,12.76
2023-03-21T08:10:58.326Z,12.81
2023-03-21T08:13:26.209Z,12.86
2023-03-21T08:15:53.467Z,12.88
2023-03-21T08:18:21.074Z,12.92
2023-03-21T08:20:56.435Z,12.86
2023-03-21T08:23:24.755Z,12.85
2023-03-21T08:25:54.183Z,12.80
2023-03-21T08:28:22.722Z,12.85
2023-03-21T08:30:51.100Z,12.90
2023-03-21T08:33:18.966Z,12.89
2023-03-21T08:35:46.889Z,12.88
2023-03-21T08:38:14.682Z,12.83
2023-03-21T08:40:41.753Z,12.89
2023-03-21T08:43:09.254Z,12.89
2023-03-21T08:45:36.397Z,12.96
2023-03-21T08:48:04.173Z,13.10
2023-03-21T08:50:31.909Z,13.14
2023-03-21T08:52:59.060Z,13.15
2023-03-21T08:55:26.115Z,13.21
2023-03-21T08:57:53.455Z,13.20
2023-03-21T09:00:22.269Z,13.30
2023-03-21T09:02:52.162Z,13.29
2023-03-21T09:05:19.984Z,13.28
2023-03-21T09:07:49.796Z,13.32
2023-03-21T09:10:21.835Z,13.36
2023-03-21T09:12:53.647Z,13.53
2023-03-21T09:15:28.667Z,13.63
2023-03-21T09:17:58.894Z,13.74
2023-03-21T09:20:31.366Z,13.94
2023-03-21T09:22:59.889Z,14.07
2023-03-21T09:25:31.263Z,14.05
2023-03-21T09:28:00.706Z,13.95
2023-03-21T09:30:28.712Z,13.99
2023-03-21T09:32:56.136Z,14.05
2023-03-21T09:35:24.346Z,14.10
2023-03-21T09:37:51.643Z,14.13
2023-03-21T09:40:40.161Z,14.16
2023-03-21T09:43:49.531Z,14.12
2023-03-21T09:46:45.382Z,14.11
2023-03-21T09:49:25.794Z,14.33
2023-03-21T09:51:56.635Z,14.45
2023-03-21T09:54:33.475Z,14.49
2023-03-21T09:57:14.959Z,14.53
2023-03-21T09:59:42.945Z,14.54
2023-03-21T10:02:49.575Z,14.48
2023-03-21T10:05:32.034Z,14.58
2023-03-21T10:08:19.518Z,14.60
2023-03-21T10:10:55.899Z,14.71
2023-03-21T10:13:31.874Z,14.77
2023-03-21T10:16:14.249Z,14.83
2023-03-21T10:18:43.534Z,14.93
2023-03-21T10:21:47.401Z,15.03
2023-03-21T10:24:14.108Z,14.96
2023-03-21T10:26:44.099Z,15.04
2023-03-21T10:29:16.793Z,15.06
2023-03-21T10:31:47.490Z,15.11
2023-03-21T10:34:36.412Z,15.12
2023-03-21T10:37:06.039Z,15.22
2023-03-21T10:39:39.186Z,15.31
2023-03-21T10:42:07.059Z,15.23
2023-03-21T10:44:36.434Z,15.24
2023-03-21T10:47:09.934Z,15.17
2023-03-21T10:50:13.053Z,15.08
2023-03-21T10:52:32.638Z,14.91
2023-03-21T10:55:33.366Z,14.95
2023-03-21T10:58:18.915Z,15.08
2023-03-21T11:00:47.795Z,15.12
2023-03-21T11:03:31.308Z,15.23
2023-03-21T11:06:23.613Z,15.43
2023-03-21T11:08:56.551Z,15.65
2023-03-21T11:11:33.809Z,15.82
2023-03-21T11:14:24.043Z,15.95
2023-03-21T11:16:51.631Z,16.17
2023-03-21T11:19:29.731Z,16.20
2023-03-21T11:22:00.058Z,16.29
2023-03-21T11:24:31.175Z,16.35
2023-03-21T11:26:59.224Z,16.44
2023-03-21T11:29:38.993Z,16.49
2023-03-21T11:32:37.349Z,16.56
2023-03-21T11:35:32.331Z,16.47
2023-03-21T11:37:59.279Z,16.40
2023-03-21T11:40:32.339Z,16.32
2023-03-21T11:43:32.049Z,16.31
2023-03-21T11:46:07.394Z,16.32
2023-03-21T11:48:40.746Z,16.36
2023-03-21T11:51:33.506Z,16.35
2023-03-21T11:54:42.136Z,16.38
2023-03-21T11:57:48.934Z,16.41
2023-03-21T12:00:29.810Z,16.45
2023-03-21T12:03:24.539Z,16.48
2023-03-21T12:05:58.474Z,16.57
2023-03-21T12:08:48.247Z,16.65
2023-03-21T12:11:55.470Z,16.59
2023-03-21T12:14:45.877Z,16.54
2023-03-21T12:17:46.512Z,16.55
2023-03-21T12:20:53.197Z,16.31
2023-03-21T12:23:23.405Z,16.38
2023-03-21T12:26:27.834Z,16.46
2023-03-21T12:29:16.967Z,16.54
2023-03-21T12:32:18.664Z,16.65
2023-03-21T12:35:22.292Z,16.56
2023-03-21T12:38:14.320Z,16.70
2023-03-21T12:41:13.727Z,16.85
2023-03-21T12:43:55.467Z,16.89
2023-03-21T12:46:40.902Z,16.93
2023-03-21T12:49:38.618Z,16.99
2023-03-21T12:52:14.578Z,17.06
2023-03-21T12:54:52.179Z,17.13
2023-03-21T12:57:57.602Z,17.02
2023-03-21T13:00:45.822Z,17.00
2023-03-21T13:03:30.607Z,17.06
2023-03-21T13:06:07.412Z,17.13
2023-03-21T13:08:46.631Z,17.09
2023-03-21T13:11:20.314Z,17.11
2023-03-21T13:14:12.485Z,17.18
2023-03-21T13:16:45.105Z,17.21
2023-03-21T13:19:16.926Z,17.24
2023-03-21T13:22:06.455Z,17.15
2023-03-21T13:24:44.029Z,17.07
2023-03-21T13:27:34.294Z,17.06
2023-03-21T13:30:26.299Z,16.99
2023-03-21T13:33:14.179Z,16.94
2023-03-21T13:35:45.933Z,16.95
2023-03-21T13:38:28.388Z,16.89
2023-03-21T13:41:05.985Z,16.89
2023-03-21T13:44:02.620Z,16.91
2023-03-21T13:46:30.198Z,16.94
2023-03-21T13:49:08.666Z,16.89
2023-03-21T13:51:53.271Z,16.88
2023-03-21T13:54:29.994Z,16.91
2023-03-21T13:57:01.486Z,17.00
2023-03-21T13:59:39.840Z,17.09
2023-03-21T14:02:39.725Z,17.16
2023-03-21T14:05:21.470Z,17.22
2023-03-21T14:08:12.424Z,17.22
2023-03-21T14:10:47.390Z,17.24
2023-03-21T14:13:20.896Z,17.28
2023-03-21T14:15:56.949Z,17.40
2023-03-21T14:18:51.642Z,17.41
2023-03-21T14:21:29.501Z,17.43
2023-03-21T14:24:03.614Z,17.44
2023-03-21T14:26:36.172Z,17.43
2023-03-21T14:29:09.619Z,17.47
2023-03-21T14:31:48.218Z,17.50
2023-03-21T14:34:17.334Z,17.52
2023-03-21T14:36:56.907Z,17.49
2023-03-21T14:39:33.611Z,17.52
2023-03-21T14:42:07.755Z,17.52
2023-03-21T14:44:52.950Z,17.52
2023-03-21T14:47:28.597Z,17.57
2023-03-21T14:49:58.127Z,17.56
2023-03-21T14:52:32.576Z,17.57
2023-03-21T14:55:15.592Z,17.54
2023-03-21T14:57:43.265Z,17.49
2023-03-21T15:00:29.586Z,17.55
2023-03-21T15:03:00.724Z,17.56
2023-03-21T15:05:38.691Z,17.56
2023-03-21T15:08:16.963Z,17.54
2023-03-21T15:11:11.979Z,17.55
2023-03-21T15:13:52.503Z,17.55
2023-03-21T15:16:23.539Z,17.58
2023-03-21T15:18:52.118Z,17.58
2023-03-21T15:21:30.394Z,17.61
2023-03-21T15:24:25.764Z,17.60
2023-03-21T15:27:03.754Z,17.59
2023-03-21T15:29:34.837Z,17.59
2023-03-21T15:32:12.860Z,17.56
2023-03-21T15:34:40.379Z,17.50
2023-03-21T15:37:17.364Z,17.42
2023-03-21T15:39:45.845Z,17.40
2023-03-21T15:42:47.777Z,17.30
2023-03-21T15:45:29.261Z,17.30
2023-03-21T15:48:03.573Z,17.29
2023-03-21T15:50:38.919Z,17.30
2023-03-21T15:53:14.111Z,17.26
2023-03-21T15:55:52.730Z,17.25
2023-03-21T15:58:24.831Z,17.28
2023-03-21T16:01:01.244Z,17.31
2023-03-21T16:03:36.391Z,17.26
2023-03-21T16:06:12.734Z,17.24
2023-03-21T16:08:52.682Z,17.21
2023-03-21T16:11:22.515Z,17.18
2023-03-21T16:13:51.698Z,17.15
2023-03-21T16:16:28.885Z,17.08
2023-03-21T16:18:59.065Z,17.06
2023-03-21T16:21:31.113Z,17.02
2023-03-21T16:24:36.807Z,16.99
2023-03-21T16:27:06.219Z,16.97
2023-03-21T16:29:33.404Z,16.99
2023-03-21T16:32:06.208Z,16.99
2023-03-21T16:34:33.269Z,16.95
2023-03-21T16:37:00.421Z,16.93
2023-03-21T16:39:27.507Z,16.88
2023-03-21T16:41:54.700Z,16.87
2023-03-21T16:44:22.144Z,16.84
2023-03-21T16:46:49.757Z,16.85
2023-03-21T16:49:26.843Z,16.81
2023-03-21T16:51:57.018Z,16.79
2023-03-21T16:54:24.711Z,16.78
2023-03-21T16:56:58.824Z,16.73
2023-03-21T16:59:25.893Z,16.69
2023-03-21T17:01:53.066Z,16.65
2023-03-21T17:04:20.270Z,16.62
2023-03-21T17:06:52.153Z,16.60
2023-03-21T17:09:24.505Z,16.57
2023-03-21T17:11:52.078Z,16.56
2023-03-21T17:14:21.865Z,16.39
2023-03-21T17:16:49.514Z,16.35
2023-03-21T17:19:26.380Z,16.41
2023-03-21T17:21:55.279Z,16.32
2023-03-21T17:24:23.710Z,16.22
2023-03-21T17:26:50.999Z,16.16
2023-03-21T17:29:18.184Z,16.10
2023-03-21T17:31:47.546Z,15.96
2023-03-21T17:34:15.992Z,16.06
2023-03-21T17:36:46.432Z,16.11
2023-03-21T17:39:22.625Z,16.04
2023-03-21T17:41:54.495Z,15.89
2023-03-21T17:44:21.952Z,15.96
2023-03-21T17:46:51.954Z,16.02
2023-03-21T17:49:21.242Z,15.86
2023-03-21T17:51:49.031Z,15.69
2023-03-21T17:54:16.263Z,15.71
2023-03-21T17:56:43.737Z,15.82
2023-03-21T17:59:14.512Z,15.85
2023-03-21T18:01:42.731Z,15.91
2023-03-21T18:04:11.082Z,15.95
2023-03-21T18:06:39.785Z,15.94
2023-03-21T18:09:11.433Z,15.96
2023-03-21T18:11:40.466Z,15.95
2023-03-21T18:14:16.298Z,15.96
2023-03-21T18:16:45.464Z,15.94
2023-03-21T18:19:13.524Z,15.80
2023-03-21T18:21:44.857Z,15.82
2023-03-21T18:24:12.303Z,15.81
2023-03-21T18:26:39.630Z,15.73
2023-03-21T18:30:13.162Z,15.70
2023-03-21T18:32:05.972Z,15.68
2023-03-21T18:34:36.560Z,15.69
2023-03-21T18:37:04.500Z,15.60
2023-03-21T18:39:33.471Z,15.62
2023-03-21T18:42:04.116Z,15.65
2023-03-21T18:44:38.054Z,15.68
2023-03-21T18:47:07.498Z,15.68
2023-03-21T18:52:23.117Z,15.72
2023-03-21T18:54:50.365Z,15.72
2023-03-21T18:57:35.809Z,15.71
2023-03-21T19:00:13.432Z,15.74
2023-03-21T19:02:47.866Z,15.76
2023-03-21T19:05:22.754Z,15.79
2023-03-21T19:07:52.267Z,15.78
2023-03-21T19:10:21.995Z,15.77
2023-03-21T19:12:54.806Z,15.72
2023-03-21T19:15:24.346Z,15.69
2023-03-21T19:20:47.001Z,15.65
2023-03-21T19:23:16.282Z,15.63
2023-03-21T19:25:44.121Z,15.61
2023-03-21T19:28:11.453Z,15.56
2023-03-21T19:30:39.966Z,15.53
2023-03-21T19:33:07.577Z,15.50
2023-03-21T19:35:37.305Z,15.50
2023-03-21T19:38:04.865Z,15.49
2023-03-21T19:40:32.209Z,15.50
2023-03-21T19:43:14.276Z,15.49
2023-03-21T19:45:47.820Z,15.42
2023-03-21T19:48:15.287Z,15.35
2023-03-21T19:51:00.535Z,15.36
2023-03-21T19:53:30.340Z,15.34
2023-03-21T19:56:03.470Z,15.32
2023-03-21T19:58:32.477Z,15.32
2023-03-21T20:00:59.734Z,15.30
2023-03-21T20:03:27.785Z,15.25
2023-03-21T20:06:05.651Z,15.26
2023-03-21T20:08:51.871Z,15.22
2023-03-21T20:11:21.154Z,15.25
2023-03-21T20:13:49.872Z,15.22
2023-03-21T20:16:18.486Z,15.25
2023-03-21T20:18:47.082Z,15.28
2023-03-21T20:21:18.031Z,15.30
2023-03-21T20:23:49.412Z,15.33
2023-03-21T20:26:18.427Z,15.33
2023-03-21T20:28:56.580Z,15.36
2023-03-21T20:31:27.168Z,15.37
2023-03-21T20:33:54.479Z,15.38
2023-03-21T20:36:40.398Z,15.39
2023-03-21T20:39:08.242Z,15.40
2023-03-21T20:41:35.408Z,15.38
2023-03-21T20:46:50.172Z,15.35
2023-03-21T20:49:20.150Z,15.32
2023-03-21T20:54:36.546Z,15.30
2023-03-21T20:57:05.135Z,15.27
2023-03-21T20:59:32.764Z,15.22
2023-03-21T21:02:00.223Z,15.19
2023-03-21T21:04:49.724Z,15.17
2023-03-21T21:07:22.567Z,15.14
2023-03-21T21:09:50.376Z,15.11
2023-03-21T21:12:19.526Z,15.09
2023-03-21T21:14:47.942Z,15.05
2023-03-21T21:20:15.463Z,14.97
2023-03-21T21:22:59.111Z,14.95
2023-03-21T21:25:29.152Z,14.92
2023-03-21T21:27:56.515Z,14.88
2023-03-21T21:30:24.347Z,14.85
2023-03-21T21:32:51.337Z,14.82
2023-03-21T21:35:20.616Z,14.81
2023-03-21T21:37:48.465Z,14.81
2023-03-21T21:40:20.483Z,14.79
2023-03-21T21:42:47.780Z,14.76
2023-03-21T21:45:16.105Z,14.74
2023-03-21T21:47:46.290Z,14.70
2023-03-21T21:50:13.669Z,14.68
2023-03-21T21:52:43.712Z,14.63
2023-03-21T21:55:13.243Z,14.59
2023-03-21T21:57:41.066Z,14.56
2023-03-21T22:00:13.778Z,14.50
2023-03-21T22:02:41.753Z,14.50
2023-03-21T22:05:10.980Z,14.50
2023-03-21T22:07:39.107Z,14.46
2023-03-21T22:10:07.169Z,14.44
2023-03-21T22:12:34.268Z,14.39
2023-03-21T22:15:01.826Z,14.37
2023-03-21T22:17:28.836Z,14.36
2023-03-21T22:20:05.510Z,14.38
2023-03-21T22:22:37.515Z,14.35
2023-03-21T22:25:07.493Z,14.34
2023-03-21T22:27:34.585Z,14.38
2023-03-21T22:30:04.757Z,14.37
2023-03-21T22:32:32.914Z,14.37
2023-03-21T22:35:02.525Z,14.34
2023-03-21T22:37:35.823Z,14.30
2023-03-21T22:40:06.765Z,14.29
2023-03-21T22:42:34.915Z,14.30
2023-03-21T22:45:02.780Z,14.29
2023-03-21T22:47:29.994Z,14.27
2023-03-21T22:49:57.057Z,14.23
2023-03-21T22:52:25.310Z,14.20
2023-03-21T22:54:52.252Z,14.18
2023-03-21T22:57:22.797Z,14.18
2023-03-21T22:59:49.777Z,14.16
2023-03-21T23:02:17.162Z,14.15
2023-03-21T23:04:44.701Z,14.14
2023-03-21T23:07:12.076Z,14.14
2023-03-21T23:09:39.043Z,14.12
2023-03-21T23:12:06.413Z,14.11
2023-03-21T23:14:33.304Z,14.10
2023-03-21T23:17:02.796Z,14.07
2023-03-21T23:19:30.697Z,14.08
2023-03-21T23:21:58.637Z,14.06
2023-03-21T23:24:25.643Z,14.05
2023-03-21T23:26:53.042Z,14.06
2023-03-21T23:29:20.159Z,14.05
2023-03-21T23:31:47.655Z,14.03
2023-03-21T23:34:14.981Z,13.96
2023-03-21T23:36:42.366Z,13.94
2023-03-21T23:39:09.823Z,13.94
2023-03-21T23:41:37.096Z,13.92
2023-03-21T23:44:04.494Z,13.88
2023-03-21T23:46:31.855Z,13.89
2023-03-21T23:48:58.799Z,13.91
2023-03-21T23:51:26.186Z,13.90
2023-03-21T23:53:56.595Z,13.91
2023-03-21T23:56:27.000Z,13.91
2023-03-21T23:58:54.340Z,13.89
